createdAt,value
2023-10-26T00:00:59.757Z,10.06
2023-10-26T00:02:01.647Z,10.05
2023-10-26T00:03:03.738Z,10.06
2023-10-26T00:04:06.244Z,10.06
2023-10-26T00:05:08.945Z,10.06
2023-10-26T00:06:10.856Z,10.06
2023-10-26T00:07:12.967Z,10.05
2023-10-26T00:08:15.501Z,10.06
2023-10-26T00:09:17.331Z,10.07
2023-10-26T00:10:19.956Z,10.06
2023-10-26T00:11:21.867Z,10.05
2023-10-26T00:12:23.877Z,10.05
2023-10-26T00:13:25.893Z,10.05
2023-10-26T00:14:27.734Z,10.05
2023-10-26T00:15:29.684Z,10.05
2023-10-26T00:16:31.634Z,10.05
2023-10-26T00:17:34.030Z,10.03
2023-10-26T00:18:36.277Z,10.04
2023-10-26T00:19:38.397Z,10.05
2023-10-26T00:20:40.500Z,10.03
2023-10-26T00:21:42.480Z,10.03
2023-10-26T00:22:44.385Z,10.03
2023-10-26T00:23:46.442Z,10.03
2023-10-26T00:24:48.541Z,10.03
2023-10-26T00:25:50.536Z,10.02
2023-10-26T00:26:52.582Z,10.01
2023-10-26T00:27:54.677Z,10.02
2023-10-26T00:28:56.547Z,9.99
2023-10-26T00:29:58.484Z,9.99
2023-10-26T00:31:00.438Z,9.98
2023-10-26T00:32:02.405Z,9.98
2023-10-26T00:33:04.850Z,9.98
2023-10-26T00:34:07.166Z,9.99
2023-10-26T00:35:10.149Z,9.98
2023-10-26T00:36:12.182Z,9.97
2023-10-26T00:37:14.183Z,9.97
2023-10-26T00:38:16.046Z,9.96
2023-10-26T00:39:19.091Z,9.96
2023-10-26T00:40:21.238Z,9.97
2023-10-26T00:41:23.108Z,9.97
2023-10-26T00:42:26.178Z,9.96
2023-10-26T00:43:28.143Z,9.97
2023-10-26T00:44:30.592Z,9.96
2023-10-26T00:45:36.610Z,9.95
2023-10-26T00:46:39.199Z,9.94
2023-10-26T00:47:42.163Z,9.94
2023-10-26T00:48:44.337Z,9.94
2023-10-26T00:49:46.800Z,9.94
2023-10-26T00:50:50.823Z,9.94
2023-10-26T00:52:00.225Z,9.93
2023-10-26T00:53:03.093Z,9.93
2023-10-26T00:54:06.892Z,9.91
2023-10-26T00:55:10.201Z,9.90
2023-10-26T00:56:15.309Z,9.91
2023-10-26T00:57:23.289Z,9.88
2023-10-26T00:58:27.323Z,9.87
2023-10-26T00:59:31.419Z,9.87
2023-10-26T01:00:34.140Z,9.88
2023-10-26T01:01:36.142Z,9.87
2023-10-26T01:02:39.642Z,9.85
2023-10-26T01:03:43.117Z,9.84
2023-10-26T01:04:45.363Z,9.85
2023-10-26T01:05:47.670Z,9.86
2023-10-26T01:06:49.710Z,9.86
2023-10-26T01:07:51.604Z,9.86
2023-10-26T01:08:54.229Z,9.85
2023-10-26T01:09:58.274Z,9.85
2023-10-26T01:11:01.011Z,9.84
2023-10-26T01:12:03.373Z,9.84
2023-10-26T01:13:05.743Z,9.84
2023-10-26T01:14:09.390Z,9.86
2023-10-26T01:15:12.446Z,9.83
2023-10-26T01:16:16.384Z,9.82
2023-10-26T01:17:18.782Z,9.82
2023-10-26T01:18:21.724Z,9.81
2023-10-26T01:19:42.489Z,9.81
2023-10-26T01:20:44.570Z,9.80
2023-10-26T01:21:54.883Z,9.80
2023-10-26T01:22:56.839Z,9.78
2023-10-26T01:23:59.320Z,9.77
2023-10-26T01:25:01.367Z,9.75
2023-10-26T01:26:03.399Z,9.75
2023-10-26T01:27:06.588Z,9.72
2023-10-26T01:28:08.542Z,9.71
2023-10-26T01:29:10.942Z,9.70
2023-10-26T01:30:14.208Z,9.69
2023-10-26T01:31:17.916Z,9.68
2023-10-26T01:32:19.869Z,9.66
2023-10-26T01:33:22.300Z,9.66
2023-10-26T01:34:25.243Z,9.66
2023-10-26T01:35:27.600Z,9.63
2023-10-26T01:36:29.814Z,9.63
2023-10-26T01:37:31.758Z,9.62
2023-10-26T01:38:34.060Z,9.60
2023-10-26T01:39:35.915Z,9.58
2023-10-26T01:40:37.797Z,9.60
2023-10-26T01:41:39.729Z,9.58
2023-10-26T01:42:41.696Z,9.59
2023-10-26T01:43:43.645Z,9.59
2023-10-26T01:44:45.802Z,9.60
2023-10-26T01:45:47.850Z,9.59
2023-10-26T01:46:49.845Z,9.58
2023-10-26T01:47:53.139Z,9.60
2023-10-26T01:48:55.456Z,9.58
2023-10-26T01:49:57.507Z,9.57
2023-10-26T01:50:59.438Z,9.56
2023-10-26T01:52:01.371Z,9.55
2023-10-26T01:53:03.320Z,9.56
2023-10-26T01:54:05.660Z,9.55
2023-10-26T01:55:08.623Z,9.57
2023-10-26T01:56:10.588Z,9.57
2023-10-26T01:57:12.759Z,9.57
2023-10-26T01:58:15.455Z,9.54
2023-10-26T01:59:17.428Z,9.52
2023-10-26T02:00:19.785Z,9.50
2023-10-26T02:01:21.883Z,9.47
2023-10-26T02:02:23.806Z,9.47
2023-10-26T02:03:25.753Z,9.49
2023-10-26T02:04:27.705Z,9.50
2023-10-26T02:05:29.685Z,9.49
2023-10-26T02:06:31.784Z,9.51
2023-10-26T02:07:34.556Z,9.50
2023-10-26T02:08:36.701Z,9.49
2023-10-26T02:09:38.823Z,9.48
2023-10-26T02:10:42.432Z,9.49
2023-10-26T02:11:45.177Z,9.49
2023-10-26T02:12:48.582Z,9.48
2023-10-26T02:13:51.238Z,9.50
2023-10-26T02:14:53.391Z,9.49
2023-10-26T02:15:55.321Z,9.50
2023-10-26T02:16:57.170Z,9.51
2023-10-26T02:17:59.153Z,9.51
2023-10-26T02:19:01.283Z,9.51
2023-10-26T02:20:03.531Z,9.51
2023-10-26T02:21:07.050Z,9.50
2023-10-26T02:22:09.081Z,9.50
2023-10-26T02:23:11.364Z,9.50
2023-10-26T02:24:13.332Z,9.52
2023-10-26T02:25:18.056Z,9.50
2023-10-26T02:26:19.937Z,9.50
2023-10-26T02:27:22.088Z,9.50
2023-10-26T02:28:24.554Z,9.49
2023-10-26T02:29:26.738Z,9.49
2023-10-26T02:30:28.676Z,9.49
2023-10-26T02:31:30.604Z,9.50
2023-10-26T02:32:33.272Z,9.52
2023-10-26T02:33:35.292Z,9.53
2023-10-26T02:34:38.379Z,9.53
2023-10-26T02:35:42.929Z,9.51
2023-10-26T02:36:44.985Z,9.52
2023-10-26T02:37:46.917Z,9.53
2023-10-26T02:38:49.147Z,9.55
2023-10-26T02:39:51.151Z,9.56
2023-10-26T02:40:53.085Z,9.56
2023-10-26T02:41:55.020Z,9.57
2023-10-26T02:42:56.894Z,9.57
2023-10-26T02:43:58.796Z,9.57
2023-10-26T02:45:00.741Z,9.56
2023-10-26T02:46:07.403Z,9.56
2023-10-26T02:47:09.278Z,9.56
2023-10-26T02:48:11.260Z,9.55
2023-10-26T02:49:13.214Z,9.56
2023-10-26T02:50:15.125Z,9.57
2023-10-26T02:51:17.057Z,9.57
2023-10-26T02:52:18.937Z,9.58
2023-10-26T02:53:20.816Z,9.58
2023-10-26T02:54:22.895Z,9.59
2023-10-26T02:55:26.156Z,9.59
2023-10-26T02:56:28.004Z,9.60
2023-10-26T02:57:29.940Z,9.58
2023-10-26T02:58:31.920Z,9.59
2023-10-26T02:59:33.890Z,9.59
2023-10-26T03:00:35.784Z,9.58
2023-10-26T03:01:37.721Z,9.57
2023-10-26T03:02:40.492Z,9.57
2023-10-26T03:03:42.536Z,9.57
2023-10-26T03:04:44.793Z,9.57
2023-10-26T03:05:46.956Z,9.57
2023-10-26T03:06:48.812Z,9.58
2023-10-26T03:07:51.856Z,9.58
2023-10-26T03:08:53.907Z,9.60
2023-10-26T03:09:56.046Z,9.59
2023-10-26T03:10:57.942Z,9.59
2023-10-26T03:11:59.833Z,9.61
2023-10-26T03:13:01.778Z,9.62
2023-10-26T03:14:05.396Z,9.62
2023-10-26T03:15:08.956Z,9.64
2023-10-26T03:16:11.423Z,9.63
2023-10-26T03:17:16.389Z,9.65
2023-10-26T03:18:19.787Z,9.66
2023-10-26T03:19:21.797Z,9.67
2023-10-26T03:20:23.834Z,9.68
2023-10-26T03:21:25.850Z,9.67
2023-10-26T03:22:27.762Z,9.68
2023-10-26T03:23:29.709Z,9.68
2023-10-26T03:24:31.745Z,9.66
2023-10-26T03:25:33.724Z,9.68
2023-10-26T03:26:35.591Z,9.67
2023-10-26T03:27:37.499Z,9.68
2023-10-26T03:28:39.376Z,9.68
2023-10-26T03:29:41.301Z,9.68
2023-10-26T03:30:43.217Z,9.70
2023-10-26T03:31:45.244Z,9.71
2023-10-26T03:32:47.315Z,9.70
2023-10-26T03:33:50.184Z,9.71
2023-10-26T03:34:53.457Z,9.70
2023-10-26T03:35:55.423Z,9.68
2023-10-26T03:36:57.359Z,9.70
2023-10-26T03:37:59.281Z,9.69
2023-10-26T03:39:01.231Z,9.67
2023-10-26T03:40:07.925Z,9.68
2023-10-26T03:41:10.357Z,9.68
2023-10-26T03:42:13.189Z,9.68
2023-10-26T03:43:15.175Z,9.67
2023-10-26T03:44:17.609Z,9.67
2023-10-26T03:45:19.851Z,9.65
2023-10-26T03:46:21.877Z,9.64
2023-10-26T03:47:23.760Z,9.64
2023-10-26T03:48:25.732Z,9.62
2023-10-26T03:49:27.743Z,9.61
2023-10-26T03:50:29.676Z,9.60
2023-10-26T03:51:31.656Z,9.57
2023-10-26T03:52:33.549Z,9.55
2023-10-26T03:53:35.688Z,9.56
2023-10-26T03:54:37.700Z,9.55
2023-10-26T03:55:39.537Z,9.55
2023-10-26T03:56:41.476Z,9.54
2023-10-26T03:57:44.716Z,9.54
2023-10-26T03:58:46.645Z,9.53
2023-10-26T03:59:48.567Z,9.49
2023-10-26T04:00:52.469Z,9.51
2023-10-26T04:01:54.376Z,9.51
2023-10-26T04:02:56.398Z,9.50
2023-10-26T04:03:58.290Z,9.50
2023-10-26T04:05:00.526Z,9.50
2023-10-26T04:06:02.452Z,9.49
2023-10-26T04:07:04.521Z,9.48
2023-10-26T04:08:07.671Z,9.50
2023-10-26T04:09:09.666Z,9.49
2023-10-26T04:10:11.625Z,9.48
2023-10-26T04:11:19.728Z,9.49
2023-10-26T04:12:21.676Z,9.49
2023-10-26T04:13:23.633Z,9.50
2023-10-26T04:14:26.509Z,9.50
2023-10-26T04:15:29.131Z,9.51
2023-10-26T04:16:32.392Z,9.53
2023-10-26T04:17:35.200Z,9.52
2023-10-26T04:18:37.215Z,9.52
2023-10-26T04:19:39.530Z,9.55
2023-10-26T04:20:41.443Z,9.55
2023-10-26T04:21:43.548Z,9.55
2023-10-26T04:22:45.453Z,9.55
2023-10-26T04:23:47.323Z,9.56
2023-10-26T04:24:49.209Z,9.55
2023-10-26T04:25:55.136Z,9.57
2023-10-26T04:26:57.342Z,9.57
2023-10-26T04:27:59.220Z,9.56
2023-10-26T04:29:01.158Z,9.56
2023-10-26T04:30:03.280Z,9.58
2023-10-26T04:31:06.030Z,9.59
2023-10-26T04:32:09.464Z,9.59
2023-10-26T04:33:11.511Z,9.59
2023-10-26T04:34:13.424Z,9.60
2023-10-26T04:35:15.500Z,9.61
2023-10-26T04:36:17.582Z,9.61
2023-10-26T04:37:19.531Z,9.62
2023-10-26T04:38:21.469Z,9.63
2023-10-26T04:39:23.521Z,9.64
2023-10-26T04:40:25.438Z,9.64
2023-10-26T04:41:27.328Z,9.65
2023-10-26T04:42:29.279Z,9.65
2023-10-26T04:43:31.251Z,9.65
2023-10-26T04:44:33.563Z,9.64
2023-10-26T04:45:36.533Z,9.64
2023-10-26T04:46:38.385Z,9.63
2023-10-26T04:47:40.379Z,9.63
2023-10-26T04:48:42.373Z,9.64
2023-10-26T04:49:44.373Z,9.63
2023-10-26T04:50:48.033Z,9.65
2023-10-26T04:51:49.980Z,9.65
2023-10-26T04:52:52.669Z,9.65
2023-10-26T04:53:54.828Z,9.66
2023-10-26T04:54:56.715Z,9.67
2023-10-26T04:55:58.610Z,9.66
2023-10-26T04:57:00.484Z,9.66
2023-10-26T04:58:04.334Z,9.67
2023-10-26T04:59:06.274Z,9.66
2023-10-26T05:00:10.550Z,9.66
2023-10-26T05:01:12.601Z,9.66
2023-10-26T05:02:14.605Z,9.67
2023-10-26T05:03:16.532Z,9.66
2023-10-26T05:04:18.486Z,9.63
2023-10-26T05:05:20.753Z,9.64
2023-10-26T05:06:22.827Z,9.61
2023-10-26T05:07:24.842Z,9.60
2023-10-26T05:08:26.742Z,9.59
2023-10-26T05:09:28.687Z,9.59
2023-10-26T05:10:30.612Z,9.57
2023-10-26T05:11:33.777Z,9.55
2023-10-26T05:12:35.667Z,9.54
2023-10-26T05:13:37.610Z,9.52
2023-10-26T05:14:40.257Z,9.49
2023-10-26T05:15:45.224Z,9.50
2023-10-26T05:16:47.139Z,9.49
2023-10-26T05:17:49.199Z,9.47
2023-10-26T05:18:51.263Z,9.45
2023-10-26T05:19:53.197Z,9.45
2023-10-26T05:20:55.175Z,9.46
2023-10-26T05:21:57.067Z,9.45
2023-10-26T05:22:59.040Z,9.44
2023-10-26T05:24:00.909Z,9.45
2023-10-26T05:25:05.913Z,9.43
2023-10-26T05:26:07.891Z,9.42
2023-10-26T05:27:09.770Z,9.43
2023-10-26T05:28:11.712Z,9.43
2023-10-26T05:29:13.625Z,9.42
2023-10-26T05:30:15.576Z,9.42
2023-10-26T05:31:17.567Z,9.42
2023-10-26T05:32:19.542Z,9.43
2023-10-26T05:33:21.689Z,9.43
2023-10-26T05:34:23.909Z,9.42
2023-10-26T05:35:25.811Z,9.43
2023-10-26T05:36:27.749Z,9.42
2023-10-26T05:37:29.704Z,9.42
2023-10-26T05:38:31.652Z,9.42
2023-10-26T05:39:33.841Z,9.42
2023-10-26T05:40:35.926Z,9.43
2023-10-26T05:41:37.768Z,9.44
2023-10-26T05:42:39.645Z,9.46
2023-10-26T05:43:41.827Z,9.48
2023-10-26T05:44:43.884Z,9.51
2023-10-26T05:45:45.897Z,9.53
2023-10-26T05:46:47.806Z,9.55
2023-10-26T05:47:56.560Z,9.57
2023-10-26T05:48:58.588Z,9.56
2023-10-26T05:50:01.245Z,9.58
2023-10-26T05:51:03.743Z,9.59
2023-10-26T05:52:06.257Z,9.58
2023-10-26T05:53:08.873Z,9.58
2023-10-26T05:54:11.446Z,9.57
2023-10-26T05:55:14.397Z,9.58
2023-10-26T05:56:16.396Z,9.58
2023-10-26T05:57:18.248Z,9.57
2023-10-26T05:58:20.170Z,9.57
2023-10-26T05:59:22.926Z,9.55
2023-10-26T06:00:27.052Z,9.55
2023-10-26T06:01:29.042Z,9.56
2023-10-26T06:02:30.986Z,9.55
2023-10-26T06:03:32.892Z,9.54
2023-10-26T06:04:34.942Z,9.55
2023-10-26T06:05:36.776Z,9.54
2023-10-26T06:06:38.775Z,9.54
2023-10-26T06:07:40.730Z,9.53
2023-10-26T06:08:42.657Z,9.52
2023-10-26T06:09:44.610Z,9.52
2023-10-26T06:10:46.457Z,9.53
2023-10-26T06:11:48.395Z,9.53
2023-10-26T06:12:50.256Z,9.54
2023-10-26T06:13:53.104Z,9.55
2023-10-26T06:14:54.995Z,9.53
2023-10-26T06:15:56.972Z,9.53
2023-10-26T06:16:58.857Z,9.52
2023-10-26T06:18:00.766Z,9.50
2023-10-26T06:19:02.698Z,9.49
2023-10-26T06:20:05.421Z,9.46
2023-10-26T06:21:08.411Z,9.46
2023-10-26T06:22:10.654Z,9.45
2023-10-26T06:23:12.569Z,9.46
2023-10-26T06:24:14.600Z,9.46
2023-10-26T06:25:16.621Z,9.46
2023-10-26T06:26:18.464Z,9.47
2023-10-26T06:27:20.849Z,9.47
2023-10-26T06:28:22.839Z,9.47
2023-10-26T06:29:24.751Z,9.48
2023-10-26T06:30:26.718Z,9.48
2023-10-26T06:31:28.661Z,9.49
2023-10-26T06:32:30.600Z,9.49
2023-10-26T06:33:32.495Z,9.48
2023-10-26T06:34:34.490Z,9.49
2023-10-26T06:35:36.298Z,9.50
2023-10-26T06:36:38.312Z,9.50
2023-10-26T06:37:40.232Z,9.52
2023-10-26T06:38:42.429Z,9.53
2023-10-26T06:39:44.274Z,9.52
2023-10-26T06:40:48.184Z,9.54
2023-10-26T06:41:50.238Z,9.51
2023-10-26T06:42:52.582Z,9.51
2023-10-26T06:43:54.503Z,9.50
2023-10-26T06:44:56.534Z,9.51
2023-10-26T06:46:02.748Z,9.49
2023-10-26T06:47:05.098Z,9.51
2023-10-26T06:48:07.096Z,9.51
2023-10-26T06:49:26.704Z,9.51
2023-10-26T06:50:30.894Z,9.52
2023-10-26T06:51:32.782Z,9.52
2023-10-26T06:52:34.639Z,9.53
2023-10-26T06:53:36.643Z,9.54
2023-10-26T06:54:40.586Z,9.53
2023-10-26T06:55:43.936Z,9.51
2023-10-26T06:56:45.841Z,9.53
2023-10-26T06:57:47.764Z,9.51
2023-10-26T06:58:49.786Z,9.50
2023-10-26T06:59:51.750Z,9.51
2023-10-26T07:00:54.179Z,9.51
2023-10-26T07:02:08.538Z,9.51
2023-10-26T07:03:12.865Z,9.52
2023-10-26T07:04:14.891Z,9.51
2023-10-26T07:05:17.712Z,9.52
2023-10-26T07:06:20.185Z,9.53
2023-10-26T07:07:22.916Z,9.53
2023-10-26T07:08:24.947Z,9.51
2023-10-26T07:09:27.103Z,9.54
2023-10-26T07:10:29.355Z,9.55
2023-10-26T07:11:31.305Z,9.54
2023-10-26T07:12:33.207Z,9.56
2023-10-26T07:13:35.824Z,9.54
2023-10-26T07:14:38.066Z,9.56
2023-10-26T07:15:40.271Z,9.57
2023-10-26T07:16:42.270Z,9.58
2023-10-26T07:17:44.720Z,9.58
2023-10-26T07:18:46.730Z,9.58
2023-10-26T07:19:48.868Z,9.59
2023-10-26T07:20:51.925Z,9.59
2023-10-26T07:21:53.827Z,9.58
2023-10-26T07:22:55.658Z,9.59
2023-10-26T07:23:57.528Z,9.58
2023-10-26T07:24:59.424Z,9.60
2023-10-26T07:26:01.981Z,9.61
2023-10-26T07:27:04.414Z,9.61
2023-10-26T07:28:06.418Z,9.63
2023-10-26T07:29:08.315Z,9.65
2023-10-26T07:30:12.772Z,9.64
2023-10-26T07:31:21.176Z,9.64
2023-10-26T07:32:23.476Z,9.62
2023-10-26T07:33:26.095Z,9.62
2023-10-26T07:34:28.082Z,9.63
2023-10-26T07:35:29.999Z,9.62
2023-10-26T07:36:32.109Z,9.64
2023-10-26T07:37:34.117Z,9.65
2023-10-26T07:38:37.616Z,9.64
2023-10-26T07:39:44.415Z,9.66
2023-10-26T07:40:54.106Z,9.66
2023-10-26T07:42:06.715Z,9.66
2023-10-26T07:43:10.202Z,9.66
2023-10-26T07:44:12.108Z,9.68
2023-10-26T07:45:14.126Z,9.66
2023-10-26T07:46:16.062Z,9.68
2023-10-26T07:47:17.969Z,9.69
2023-10-26T07:48:20.007Z,9.68
2023-10-26T07:49:21.946Z,9.68
2023-10-26T07:50:23.946Z,9.70
2023-10-26T07:51:25.898Z,9.69
2023-10-26T07:52:27.871Z,9.70
2023-10-26T07:53:30.021Z,9.70
2023-10-26T07:54:32.007Z,9.70
2023-10-26T07:55:34.686Z,9.70
2023-10-26T07:56:39.505Z,9.72
2023-10-26T07:57:44.256Z,9.71
2023-10-26T07:58:46.197Z,9.71
2023-10-26T07:59:48.318Z,9.72
2023-10-26T08:00:50.276Z,9.74
2023-10-26T08:01:52.322Z,9.73
2023-10-26T08:02:54.411Z,9.75
2023-10-26T08:03:56.331Z,9.74
2023-10-26T08:04:58.267Z,9.75
2023-10-26T08:06:03.900Z,9.75
2023-10-26T08:07:05.796Z,9.76
2023-10-26T08:08:07.774Z,9.75
2023-10-26T08:09:09.755Z,9.76
2023-10-26T08:10:11.866Z,9.77
2023-10-26T08:11:15.634Z,9.77
2023-10-26T08:12:17.789Z,9.78
2023-10-26T08:13:19.905Z,9.80
2023-10-26T08:14:31.468Z,9.81
2023-10-26T08:16:09.640Z,9.79
2023-10-26T08:17:06.247Z,9.81
2023-10-26T08:18:08.438Z,9.82
2023-10-26T08:19:10.655Z,9.84
2023-10-26T08:20:13.318Z,9.85
2023-10-26T08:21:15.294Z,9.84
2023-10-26T08:22:17.182Z,9.83
2023-10-26T08:23:20.738Z,9.86
2023-10-26T08:24:22.701Z,9.88
2023-10-26T08:25:25.964Z,9.87
2023-10-26T08:26:28.370Z,9.87
2023-10-26T08:27:32.438Z,9.86
2023-10-26T08:28:38.465Z,9.86
2023-10-26T08:29:40.707Z,9.89
2023-10-26T08:30:43.666Z,9.89
2023-10-26T08:31:45.678Z,9.90
2023-10-26T08:32:50.579Z,9.91
2023-10-26T08:33:52.653Z,9.91
2023-10-26T08:34:54.560Z,9.93
2023-10-26T08:35:56.633Z,9.93
2023-10-26T08:37:13.193Z,9.97
2023-10-26T08:38:16.395Z,9.97
2023-10-26T08:39:19.038Z,9.98
2023-10-26T08:40:21.664Z,9.99
2023-10-26T08:41:23.801Z,9.99
2023-10-26T08:42:26.094Z,10.02
2023-10-26T08:43:30.620Z,10.03
2023-10-26T08:44:33.584Z,10.02
2023-10-26T08:45:37.865Z,10.02
2023-10-26T08:46:40.719Z,10.02
2023-10-26T08:47:44.906Z,10.04
2023-10-26T08:48:51.439Z,10.04
2023-10-26T08:50:12.284Z,10.04
2023-10-26T08:51:17.864Z,10.03
2023-10-26T08:52:19.894Z,10.06
2023-10-26T08:53:21.941Z,10.06
2023-10-26T08:54:24.344Z,10.06
2023-10-26T08:55:27.018Z,10.09
2023-10-26T08:56:29.430Z,10.10
2023-10-26T08:57:31.326Z,10.10
2023-10-26T08:58:33.592Z,10.11
2023-10-26T08:59:37.099Z,10.11
2023-10-26T09:00:41.764Z,10.12
2023-10-26T09:01:49.987Z,10.14
2023-10-26T09:02:52.584Z,10.15
2023-10-26T09:03:54.882Z,10.16
2023-10-26T09:05:05.640Z,10.18
2023-10-26T09:06:07.771Z,10.18
2023-10-26T09:07:09.969Z,10.20
2023-10-26T09:08:21.667Z,10.22
2023-10-26T09:09:24.056Z,10.20
2023-10-26T09:10:33.519Z,10.24
2023-10-26T09:11:35.476Z,10.22
2023-10-26T09:12:38.363Z,10.23
2023-10-26T09:13:40.253Z,10.23
2023-10-26T09:14:59.383Z,10.24
2023-10-26T09:16:01.644Z,10.24
2023-10-26T09:17:04.986Z,10.24
2023-10-26T09:18:10.732Z,10.28
2023-10-26T09:19:17.992Z,10.31
2023-10-26T09:20:22.468Z,10.34
2023-10-26T09:21:24.350Z,10.35
2023-10-26T09:22:40.225Z,10.34
2023-10-26T09:23:43.112Z,10.33
2023-10-26T09:24:45.479Z,10.33
2023-10-26T09:26:04.377Z,10.32
2023-10-26T09:27:06.472Z,10.33
2023-10-26T09:28:10.679Z,10.34
2023-10-26T09:29:12.569Z,10.34
2023-10-26T09:30:29.794Z,10.34
2023-10-26T09:31:32.049Z,10.35
2023-10-26T09:32:37.726Z,10.35
2023-10-26T09:33:40.741Z,10.36
2023-10-26T09:34:46.607Z,10.39
2023-10-26T09:35:48.890Z,10.40
2023-10-26T09:37:06.414Z,10.39
2023-10-26T09:38:08.773Z,10.39
2023-10-26T09:39:10.983Z,10.41
2023-10-26T09:40:16.941Z,10.41
2023-10-26T09:41:21.152Z,10.41
2023-10-26T09:42:25.076Z,10.40
2023-10-26T09:43:27.011Z,10.41
2023-10-26T09:44:33.061Z,10.41
2023-10-26T09:45:36.448Z,10.40
2023-10-26T09:46:39.131Z,10.41
2023-10-26T09:47:41.592Z,10.40
2023-10-26T09:48:44.059Z,10.41
2023-10-26T09:49:46.717Z,10.42
2023-10-26T09:50:50.152Z,10.41
2023-10-26T09:51:53.651Z,10.43
2023-10-26T09:52:58.643Z,10.43
2023-10-26T09:54:05.739Z,10.44
2023-10-26T09:55:11.518Z,10.42
2023-10-26T09:56:24.816Z,10.41
2023-10-26T09:57:39.936Z,10.41
2023-10-26T09:58:43.524Z,10.42
2023-10-26T09:59:54.514Z,10.42
2023-10-26T10:00:56.484Z,10.42
2023-10-26T10:01:58.559Z,10.44
2023-10-26T10:03:18.157Z,10.44
2023-10-26T10:04:38.843Z,10.46
2023-10-26T10:05:48.052Z,10.48
2023-10-26T10:06:59.864Z,10.48
2023-10-26T10:08:02.051Z,10.47
2023-10-26T10:09:04.271Z,10.48
2023-10-26T10:10:09.315Z,10.48
2023-10-26T10:11:18.741Z,10.48
2023-10-26T10:12:26.955Z,10.48
2023-10-26T10:13:38.939Z,10.47
2023-10-26T10:14:49.891Z,10.51
2023-10-26T10:15:51.886Z,10.48
2023-10-26T10:16:54.778Z,10.50
2023-10-26T10:17:59.469Z,10.50
2023-10-26T10:19:21.841Z,10.50
2023-10-26T10:20:23.609Z,10.50
2023-10-26T10:21:37.737Z,10.50
2023-10-26T10:22:51.318Z,10.51
2023-10-26T10:23:53.244Z,10.52
2023-10-26T10:24:55.272Z,10.51
2023-10-26T10:26:05.765Z,10.53
2023-10-26T10:27:19.295Z,10.51
2023-10-26T10:28:21.737Z,10.53
2023-10-26T10:29:24.099Z,10.53
2023-10-26T10:30:47.138Z,10.53
2023-10-26T10:31:49.143Z,10.54
2023-10-26T10:32:53.145Z,10.54
2023-10-26T10:34:06.780Z,10.54
2023-10-26T10:35:28.252Z,10.53
2023-10-26T10:36:30.354Z,10.53
2023-10-26T10:37:32.248Z,10.54
2023-10-26T10:38:34.213Z,10.54
2023-10-26T10:39:36.297Z,10.57
2023-10-26T10:40:39.753Z,10.57
2023-10-26T10:41:42.407Z,10.58
2023-10-26T10:42:51.001Z,10.58
2023-10-26T10:43:59.275Z,10.59
2023-10-26T10:45:03.743Z,10.60
2023-10-26T10:46:21.437Z,10.60
2023-10-26T10:47:29.941Z,10.61
2023-10-26T10:48:32.005Z,10.63
2023-10-26T10:49:34.323Z,10.63
2023-10-26T10:50:36.573Z,10.63
2023-10-26T10:51:42.413Z,10.64
2023-10-26T10:52:44.802Z,10.66
2023-10-26T10:53:51.932Z,10.65
2023-10-26T10:55:04.677Z,10.67
2023-10-26T10:56:07.498Z,10.66
2023-10-26T10:57:09.460Z,10.67
2023-10-26T10:58:11.544Z,10.66
2023-10-26T10:59:24.701Z,10.66
2023-10-26T11:00:52.152Z,10.65
2023-10-26T11:02:14.560Z,10.64
2023-10-26T11:03:21.574Z,10.62
2023-10-26T11:04:23.981Z,10.64
2023-10-26T11:05:41.219Z,10.65
2023-10-26T11:06:50.865Z,10.64
2023-10-26T11:07:53.989Z,10.64
2023-10-26T11:08:55.892Z,10.64
2023-10-26T11:10:04.129Z,10.67
2023-10-26T11:11:06.232Z,10.68
2023-10-26T11:12:13.002Z,10.65
2023-10-26T11:13:21.513Z,10.66
2023-10-26T11:14:23.903Z,10.66
2023-10-26T11:15:39.025Z,10.67
2023-10-26T11:16:45.207Z,10.66
2023-10-26T11:17:48.967Z,10.63
2023-10-26T11:18:51.160Z,10.62
2023-10-26T11:19:54.776Z,10.65
2023-10-26T11:20:56.710Z,10.64
2023-10-26T11:22:05.276Z,10.63
2023-10-26T11:23:10.540Z,10.60
2023-10-26T11:24:19.150Z,10.61
2023-10-26T11:25:28.411Z,10.60
2023-10-26T11:26:30.324Z,10.60
2023-10-26T11:27:38.703Z,10.59
2023-10-26T11:28:41.934Z,10.60
2023-10-26T11:30:01.036Z,10.59
2023-10-26T11:31:03.163Z,10.57
2023-10-26T11:32:22.234Z,10.57
2023-10-26T11:33:40.534Z,10.56
2023-10-26T11:35:10.728Z,10.54
2023-10-26T11:36:14.445Z,10.56
2023-10-26T11:37:16.560Z,10.57
2023-10-26T11:38:18.531Z,10.57
2023-10-26T11:39:20.909Z,10.58
2023-10-26T11:40:33.132Z,10.61
2023-10-26T11:41:35.217Z,10.62
2023-10-26T11:42:53.174Z,10.62
2023-10-26T11:43:57.306Z,10.63
2023-10-26T11:44:59.141Z,10.62
2023-10-26T11:46:04.214Z,10.65
2023-10-26T11:47:06.439Z,10.65
2023-10-26T11:48:08.336Z,10.64
2023-10-26T11:49:10.225Z,10.65
2023-10-26T11:50:27.240Z,10.68
2023-10-26T11:51:30.382Z,10.68
2023-10-26T11:52:32.387Z,10.70
2023-10-26T11:53:35.748Z,10.70
2023-10-26T11:54:37.963Z,10.71
2023-10-26T11:55:39.938Z,10.71
2023-10-26T11:56:41.895Z,10.72
2023-10-26T11:57:43.908Z,10.72
2023-10-26T11:58:45.866Z,10.73
2023-10-26T11:59:47.785Z,10.71
2023-10-26T12:00:49.708Z,10.71
2023-10-26T12:01:51.736Z,10.73
2023-10-26T12:02:58.777Z,10.72
2023-10-26T12:04:00.879Z,10.71
2023-10-26T12:05:04.234Z,10.74
2023-10-26T12:06:06.690Z,10.75
2023-10-26T12:07:08.802Z,10.74
2023-10-26T12:08:10.701Z,10.75
2023-10-26T12:09:14.632Z,10.75
2023-10-26T12:10:20.111Z,10.76
2023-10-26T12:11:22.030Z,10.78
2023-10-26T12:12:24.089Z,10.79
2023-10-26T12:13:25.974Z,10.80
2023-10-26T12:14:27.851Z,10.80
2023-10-26T12:15:31.283Z,10.80
2023-10-26T12:16:33.712Z,10.82
2023-10-26T12:17:36.966Z,10.81
2023-10-26T12:18:39.319Z,10.81
2023-10-26T12:19:41.262Z,10.80
2023-10-26T12:20:43.229Z,10.81
2023-10-26T12:21:45.223Z,10.80
2023-10-26T12:22:53.223Z,10.82
2023-10-26T12:23:55.873Z,10.82
2023-10-26T12:24:57.841Z,10.82
2023-10-26T12:26:00.081Z,10.82
2023-10-26T12:27:02.064Z,10.80
2023-10-26T12:28:20.270Z,10.78
2023-10-26T12:29:24.893Z,10.77
2023-10-26T12:30:26.897Z,10.76
2023-10-26T12:31:28.932Z,10.77
2023-10-26T12:32:33.996Z,10.76
2023-10-26T12:33:39.677Z,10.77
2023-10-26T12:34:43.465Z,10.77
2023-10-26T12:35:47.477Z,10.76
2023-10-26T12:36:49.486Z,10.74
2023-10-26T12:37:52.465Z,10.76
2023-10-26T12:38:54.793Z,10.76
2023-10-26T12:39:57.131Z,10.75
2023-10-26T12:41:00.339Z,10.78
2023-10-26T12:42:03.187Z,10.79
2023-10-26T12:43:05.975Z,10.77
2023-10-26T12:44:08.868Z,10.77
2023-10-26T12:45:11.058Z,10.77
2023-10-26T12:46:14.110Z,10.75
2023-10-26T12:47:16.200Z,10.74
2023-10-26T12:48:18.128Z,10.76
2023-10-26T12:49:22.421Z,10.78
2023-10-26T12:50:24.613Z,10.70
2023-10-26T12:51:26.651Z,10.78
2023-10-26T12:52:28.814Z,10.77
2023-10-26T12:53:33.113Z,10.76
2023-10-26T12:54:35.634Z,10.74
2023-10-26T12:55:37.722Z,10.76
2023-10-26T12:56:39.717Z,10.74
2023-10-26T12:57:41.810Z,10.76
2023-10-26T12:58:43.817Z,10.76
2023-10-26T12:59:46.133Z,10.77
2023-10-26T13:00:49.584Z,10.77
2023-10-26T13:01:51.525Z,10.79
2023-10-26T13:02:53.462Z,10.80
2023-10-26T13:03:57.948Z,10.80
2023-10-26T13:05:01.231Z,10.82
2023-10-26T13:06:03.283Z,10.82
2023-10-26T13:07:05.275Z,10.82
2023-10-26T13:08:07.534Z,10.83
2023-10-26T13:09:09.521Z,10.84
2023-10-26T13:10:11.524Z,10.85
2023-10-26T13:11:13.947Z,10.86
2023-10-26T13:12:15.986Z,10.86
2023-10-26T13:13:17.905Z,10.89
2023-10-26T13:14:19.916Z,10.91
2023-10-26T13:15:21.812Z,10.90
2023-10-26T13:16:24.734Z,10.91
2023-10-26T13:17:26.764Z,10.90
2023-10-26T13:18:32.843Z,10.92
2023-10-26T13:19:34.882Z,10.92
2023-10-26T13:20:40.251Z,10.92
2023-10-26T13:21:42.405Z,10.93
2023-10-26T13:22:44.506Z,10.94
2023-10-26T13:23:46.458Z,10.91
2023-10-26T13:24:48.424Z,10.92
2023-10-26T13:25:51.573Z,10.90
2023-10-26T13:26:54.600Z,10.89
2023-10-26T13:27:58.727Z,10.89
2023-10-26T13:29:01.208Z,10.88
2023-10-26T13:30:03.488Z,10.88
2023-10-26T13:31:07.150Z,10.86
2023-10-26T13:32:09.302Z,10.85
2023-10-26T13:33:11.621Z,10.84
2023-10-26T13:34:13.830Z,10.82
2023-10-26T13:35:15.716Z,10.83
2023-10-26T13:36:17.635Z,10.81
2023-10-26T13:37:20.631Z,10.81
2023-10-26T13:38:22.608Z,10.79
2023-10-26T13:39:24.459Z,10.79
2023-10-26T13:40:26.421Z,10.78
2023-10-26T13:41:28.344Z,10.78
2023-10-26T13:42:36.452Z,10.76
2023-10-26T13:43:38.382Z,10.78
2023-10-26T13:44:40.300Z,10.78
2023-10-26T13:45:42.914Z,10.78
2023-10-26T13:46:44.838Z,10.77
2023-10-26T13:47:47.570Z,10.77
2023-10-26T13:48:50.774Z,10.76
2023-10-26T13:49:52.924Z,10.74
2023-10-26T13:50:57.600Z,10.73
2023-10-26T13:51:59.757Z,10.74
2023-10-26T13:53:02.370Z,10.73
2023-10-26T13:54:04.566Z,10.74
2023-10-26T13:55:06.884Z,10.72